Round Prairie, North Dakota
Current Conditions -  °F | °C
As of 2:52 PM on Friday 31 Oct 2014 (Local Time) from KISN Reporting Station
Clear Clear  
Wind Chill: 39°   Ceiling: Unl
Heat Index: 46°   Visibility: 10mi
Dew Point: 26°   Wind: 18mph
Humidity: 46%   Direction: 150°SSE
Pressure: 30.07"   Gusts: 29mph
Location:  48.3082°N, 103.697°W
Report Text: KISN 311952Z AUTO 15016G25KT 10SM CLR 08/M03 A3007 RMK AO2 PK WND 14027/1916 SLP201 T00781033
Loading
Personal Weather Stations






























Interactive Weather Map
Tropical Storm Tracking
New forecast layout! Learn more

10-Day Weather Forecast

Advertisements
Track Severe Weather on mobile